createdAt,value
2023-03-06T00:01:00.323Z,3.80
2023-03-06T00:03:29.777Z,3.80
2023-03-06T00:05:59.919Z,3.70
2023-03-06T00:08:28.384Z,3.80
2023-03-06T00:10:56.290Z,3.80
2023-03-06T00:13:30.593Z,3.70
2023-03-06T00:16:02.614Z,3.80
2023-03-06T00:18:31.806Z,3.90
2023-03-06T00:21:00.954Z,3.80
2023-03-06T00:23:29.802Z,3.80
2023-03-06T00:25:56.445Z,3.80
2023-03-06T00:28:25.625Z,3.70
2023-03-06T00:30:52.275Z,3.80
2023-03-06T00:33:18.895Z,3.80
2023-03-06T00:35:45.592Z,3.80
2023-03-06T00:38:17.374Z,3.70
2023-03-06T00:40:44.160Z,3.70
2023-03-06T00:43:13.042Z,3.80
2023-03-06T00:45:39.939Z,3.80
2023-03-06T00:48:09.044Z,3.80
2023-03-06T00:50:36.184Z,3.80
2023-03-06T00:53:02.840Z,3.80
2023-03-06T00:55:30.869Z,3.90
2023-03-06T00:57:57.562Z,3.90
2023-03-06T01:00:26.759Z,3.80
2023-03-06T01:02:58.102Z,3.80
2023-03-06T01:05:26.878Z,3.80
2023-03-06T01:07:56.053Z,3.80
2023-03-06T01:10:25.313Z,3.90
2023-03-06T01:12:51.941Z,3.80
2023-03-06T01:15:19.034Z,3.80
2023-03-06T01:17:50.621Z,3.80
2023-03-06T01:20:18.868Z,3.90
2023-03-06T01:22:48.041Z,3.90
2023-03-06T01:25:18.066Z,3.90
2023-03-06T01:27:49.426Z,4.00
2023-03-06T01:30:16.373Z,3.90
2023-03-06T01:32:45.649Z,3.90
2023-03-06T01:35:13.069Z,3.80
2023-03-06T01:37:42.543Z,3.70
2023-03-06T01:40:15.028Z,3.60
2023-03-06T01:42:46.405Z,3.60
2023-03-06T01:45:13.455Z,3.70
2023-03-06T01:47:42.444Z,3.60
2023-03-06T01:50:11.632Z,3.50
2023-03-06T01:52:44.789Z,3.50
2023-03-06T01:55:24.779Z,3.40
2023-03-06T01:57:57.583Z,3.40
2023-03-06T02:00:30.049Z,3.50
2023-03-06T02:03:13.729Z,3.40
2023-03-06T02:05:42.330Z,3.30
2023-03-06T02:08:13.460Z,3.20
2023-03-06T02:11:00.718Z,3.20
2023-03-06T02:13:27.677Z,3.20
2023-03-06T02:15:54.496Z,3.30
2023-03-06T02:18:23.720Z,3.20
2023-03-06T02:20:59.214Z,3.20
2023-03-06T02:23:38.538Z,3.20
2023-03-06T02:26:08.886Z,3.30
2023-03-06T02:28:35.650Z,3.30
2023-03-06T02:31:04.862Z,3.30
2023-03-06T02:33:31.744Z,3.20
2023-03-06T02:36:07.541Z,3.20
2023-03-06T02:38:44.499Z,3.30
2023-03-06T02:41:11.243Z,3.30
2023-03-06T02:43:42.770Z,3.30
2023-03-06T02:46:12.362Z,3.30
2023-03-06T02:48:41.281Z,3.30
2023-03-06T02:51:10.076Z,3.30
2023-03-06T02:53:39.257Z,3.30
2023-03-06T02:56:06.360Z,3.40
2023-03-06T02:58:35.131Z,3.40
2023-03-06T03:01:01.822Z,3.40
2023-03-06T03:03:28.509Z,3.40
2023-03-06T03:06:00.130Z,3.40
2023-03-06T03:08:29.640Z,3.50
2023-03-06T03:10:57.076Z,3.50
2023-03-06T03:13:24.313Z,3.50
2023-03-06T03:16:09.019Z,3.50
2023-03-06T03:18:35.839Z,3.50
2023-03-06T03:21:08.862Z,3.50
2023-03-06T03:23:37.948Z,3.50
2023-03-06T03:26:18.848Z,3.50
2023-03-06T03:28:48.699Z,3.40
2023-03-06T03:31:17.564Z,3.40
2023-03-06T03:33:44.213Z,3.40
2023-03-06T03:36:15.341Z,3.50
2023-03-06T03:38:42.161Z,3.50
2023-03-06T03:41:10.965Z,3.60
2023-03-06T03:43:39.840Z,3.60
2023-03-06T03:46:06.580Z,3.60
2023-03-06T03:48:33.220Z,3.50
2023-03-06T03:51:10.317Z,3.60
2023-03-06T03:53:37.540Z,3.60
2023-03-06T03:56:04.883Z,3.60
2023-03-06T03:58:31.751Z,3.50
2023-03-06T04:01:00.721Z,3.50
2023-03-06T04:03:29.667Z,3.50
2023-03-06T04:05:57.880Z,3.60
2023-03-06T04:08:27.811Z,3.60
2023-03-06T04:10:55.148Z,3.50
2023-03-06T04:13:22.607Z,3.50
2023-03-06T04:15:50.920Z,3.60
2023-03-06T04:18:25.607Z,3.60
2023-03-06T04:20:52.692Z,3.50
2023-03-06T04:23:22.817Z,3.50
2023-03-06T04:25:49.809Z,3.50
2023-03-06T04:28:16.972Z,3.50
2023-03-06T04:30:43.641Z,3.50
2023-03-06T04:33:12.711Z,3.60
2023-03-06T04:35:41.576Z,3.60
2023-03-06T04:38:11.428Z,3.70
2023-03-06T04:40:44.822Z,3.60
2023-03-06T04:43:11.870Z,3.70
2023-03-06T04:45:38.627Z,3.70
2023-03-06T04:48:05.715Z,3.70
2023-03-06T04:50:32.492Z,3.70
2023-03-06T04:53:05.025Z,3.70
2023-03-06T04:55:35.023Z,3.60
2023-03-06T04:58:03.824Z,3.60
2023-03-06T05:00:31.548Z,3.60
2023-03-06T05:03:00.042Z,3.60
2023-03-06T05:05:33.834Z,3.60
2023-03-06T05:08:00.648Z,3.60
2023-03-06T05:10:29.934Z,3.60
2023-03-06T05:12:58.985Z,3.60
2023-03-06T05:15:25.612Z,3.60
2023-03-06T05:17:56.405Z,3.60
2023-03-06T05:20:23.040Z,3.50
2023-03-06T05:22:49.791Z,3.60
2023-03-06T05:25:18.611Z,3.60
2023-03-06T05:27:45.252Z,3.60
2023-03-06T05:30:13.932Z,3.50
2023-03-06T05:32:40.670Z,3.60
2023-03-06T05:35:07.861Z,3.60
2023-03-06T05:37:36.778Z,3.60
2023-03-06T05:40:09.454Z,3.60
2023-03-06T05:42:36.112Z,3.60
2023-03-06T05:45:04.463Z,3.50
2023-03-06T05:47:34.091Z,3.50
2023-03-06T05:50:00.713Z,3.40
2023-03-06T05:52:29.608Z,3.50
2023-03-06T05:54:58.615Z,3.50
2023-03-06T05:57:27.829Z,3.50
2023-03-06T05:59:54.524Z,3.60
2023-03-06T06:02:23.715Z,3.50
2023-03-06T06:04:52.828Z,3.50
2023-03-06T06:07:19.494Z,3.50
2023-03-06T06:09:46.227Z,3.50
2023-03-06T06:12:13.788Z,3.50
2023-03-06T06:14:42.771Z,3.50
2023-03-06T06:17:09.498Z,3.40
2023-03-06T06:19:36.181Z,3.40
2023-03-06T06:22:03.729Z,3.50
2023-03-06T06:24:31.406Z,3.50
2023-03-06T06:27:03.392Z,3.50
2023-03-06T06:29:30.572Z,3.50
2023-03-06T06:32:00.003Z,3.40
2023-03-06T06:34:27.578Z,3.50
2023-03-06T06:36:54.484Z,3.50
2023-03-06T06:39:25.062Z,3.60
2023-03-06T06:42:09.518Z,3.60
2023-03-06T06:44:39.724Z,3.60
2023-03-06T06:47:22.234Z,3.60
2023-03-06T06:49:53.918Z,3.60
2023-03-06T06:52:23.399Z,3.60
2023-03-06T06:54:52.388Z,3.60
2023-03-06T06:57:19.079Z,3.60
2023-03-06T06:59:45.861Z,3.60
2023-03-06T07:02:14.242Z,3.60
2023-03-06T07:05:02.629Z,3.60
2023-03-06T07:07:35.550Z,3.60
2023-03-06T07:10:09.519Z,3.60
2023-03-06T07:12:36.980Z,3.70
2023-03-06T07:15:07.978Z,3.70
2023-03-06T07:17:34.682Z,3.70
2023-03-06T07:20:01.353Z,3.80
2023-03-06T07:22:35.863Z,3.80
2023-03-06T07:25:10.975Z,3.90
2023-03-06T07:27:40.174Z,3.90
2023-03-06T07:30:11.958Z,3.80
2023-03-06T07:32:38.709Z,3.80
2023-03-06T07:35:19.457Z,3.80
2023-03-06T07:37:47.085Z,3.80
2023-03-06T07:40:13.822Z,3.80
2023-03-06T07:42:40.537Z,3.80
2023-03-06T07:45:08.929Z,3.80
2023-03-06T07:47:37.731Z,3.90
2023-03-06T07:50:07.770Z,3.90
2023-03-06T07:52:37.289Z,3.90
2023-03-06T07:55:04.263Z,3.90
2023-03-06T07:57:35.643Z,4.00
2023-03-06T08:00:05.797Z,4.10
2023-03-06T08:02:34.921Z,4.20
2023-03-06T08:05:01.620Z,4.30
2023-03-06T08:07:30.030Z,4.30
2023-03-06T08:09:56.683Z,4.30
2023-03-06T08:12:25.968Z,4.10
2023-03-06T08:14:52.706Z,4.10
2023-03-06T08:17:21.650Z,4.20
2023-03-06T08:19:50.418Z,4.20
2023-03-06T08:22:19.568Z,4.20
2023-03-06T08:24:46.194Z,4.30
2023-03-06T08:27:12.845Z,4.40
2023-03-06T08:29:39.497Z,4.50
2023-03-06T08:32:08.754Z,4.50
2023-03-06T08:34:35.509Z,4.50
2023-03-06T08:37:02.136Z,4.50
2023-03-06T08:39:28.848Z,4.60
2023-03-06T08:41:55.525Z,4.60
2023-03-06T08:44:24.660Z,4.60
2023-03-06T08:46:51.294Z,4.60
2023-03-06T08:49:17.967Z,4.50
2023-03-06T08:51:47.049Z,4.60
2023-03-06T08:54:18.405Z,4.70
2023-03-06T08:56:47.280Z,4.60
2023-03-06T08:59:14.148Z,4.90
2023-03-06T09:01:41.404Z,4.90
2023-03-06T09:04:12.943Z,4.90
2023-03-06T09:06:43.202Z,5.10
2023-03-06T09:09:12.328Z,5.10
2023-03-06T09:11:39.227Z,5.00
2023-03-06T09:14:06.226Z,5.10
2023-03-06T09:16:36.087Z,5.10
2023-03-06T09:19:02.794Z,5.20
2023-03-06T09:21:31.925Z,5.60
2023-03-06T09:23:59.547Z,5.90
2023-03-06T09:26:39.732Z,5.90
2023-03-06T09:29:16.451Z,5.90
2023-03-06T09:31:48.094Z,5.40
2023-03-06T09:34:17.582Z,5.30
2023-03-06T09:36:56.506Z,5.30
2023-03-06T09:39:25.728Z,5.20
2023-03-06T09:41:53.328Z,5.30
2023-03-06T09:44:34.427Z,5.30
2023-03-06T09:47:16.208Z,5.30
2023-03-06T09:50:09.725Z,5.20
2023-03-06T09:52:41.191Z,5.30
2023-03-06T09:55:12.884Z,5.40
2023-03-06T09:57:42.479Z,5.50
2023-03-06T10:00:16.484Z,5.60
2023-03-06T10:03:01.875Z,5.80
2023-03-06T10:05:45.474Z,6.00
2023-03-06T10:08:31.013Z,5.90
2023-03-06T10:11:12.297Z,6.00
2023-03-06T10:13:58.749Z,6.10
2023-03-06T10:16:31.209Z,5.80
2023-03-06T10:19:03.945Z,5.60
2023-03-06T10:21:45.620Z,5.50
2023-03-06T10:24:53.543Z,5.60
2023-03-06T10:27:44.589Z,5.40
2023-03-06T10:30:18.241Z,5.40
2023-03-06T10:32:58.383Z,5.40
2023-03-06T10:35:54.813Z,5.40
2023-03-06T10:38:25.938Z,5.40
2023-03-06T10:41:10.115Z,5.50
2023-03-06T10:43:39.309Z,5.40
2023-03-06T10:46:08.067Z,5.30
2023-03-06T10:48:36.436Z,5.30
2023-03-06T10:51:24.498Z,5.20
2023-03-06T10:54:18.020Z,5.20
2023-03-06T10:56:46.671Z,5.30
2023-03-06T10:59:13.298Z,5.30
2023-03-06T11:01:50.864Z,5.30
2023-03-06T11:04:20.666Z,5.40
2023-03-06T11:07:17.785Z,5.30
2023-03-06T11:10:01.746Z,5.30
2023-03-06T11:12:39.738Z,5.20
2023-03-06T11:15:18.533Z,5.30
2023-03-06T11:18:23.658Z,5.30
2023-03-06T11:20:53.468Z,5.30
2023-03-06T11:23:49.527Z,5.40
2023-03-06T11:26:16.373Z,5.30
2023-03-06T11:28:48.994Z,5.40
2023-03-06T11:31:33.504Z,5.30
2023-03-06T11:34:12.388Z,5.30
2023-03-06T11:36:49.851Z,5.40
2023-03-06T11:39:24.385Z,5.30
2023-03-06T11:42:03.285Z,5.40
2023-03-06T11:44:45.113Z,5.50
2023-03-06T11:47:26.603Z,5.50
2023-03-06T11:50:17.199Z,5.40
2023-03-06T11:52:54.640Z,5.50
2023-03-06T11:55:50.169Z,5.50
2023-03-06T11:58:52.250Z,5.40
2023-03-06T12:01:53.589Z,5.40
2023-03-06T12:04:28.668Z,5.40
2023-03-06T12:07:22.964Z,5.40
2023-03-06T12:10:14.452Z,5.50
2023-03-06T12:13:05.438Z,5.40
2023-03-06T12:16:04.945Z,5.50
2023-03-06T12:19:09.556Z,5.50
2023-03-06T12:22:04.257Z,5.40
2023-03-06T12:24:49.081Z,5.60
2023-03-06T12:27:24.543Z,5.80
2023-03-06T12:30:12.597Z,5.90
2023-03-06T12:32:45.070Z,6.10
2023-03-06T12:35:21.179Z,6.00
2023-03-06T12:37:56.847Z,5.90
2023-03-06T12:40:23.463Z,5.70
2023-03-06T12:43:20.494Z,5.70
2023-03-06T12:45:51.450Z,5.70
2023-03-06T12:48:25.509Z,5.70
2023-03-06T12:50:55.207Z,5.50
2023-03-06T12:53:29.584Z,5.50
2023-03-06T12:55:58.265Z,5.60
2023-03-06T12:58:31.085Z,5.60
2023-03-06T13:01:26.594Z,5.60
2023-03-06T13:04:17.210Z,5.70
2023-03-06T13:07:14.671Z,5.60
2023-03-06T13:10:02.377Z,5.60
2023-03-06T13:12:49.767Z,5.60
2023-03-06T13:15:29.479Z,5.40
2023-03-06T13:17:58.985Z,5.40
2023-03-06T13:20:35.415Z,5.10
2023-03-06T13:23:27.423Z,5.00
2023-03-06T13:25:54.310Z,4.80
2023-03-06T13:28:25.451Z,4.80
2023-03-06T13:30:53.270Z,4.70
2023-03-06T13:33:37.595Z,4.70
2023-03-06T13:36:22.484Z,4.80
2023-03-06T13:38:51.790Z,5.00
2023-03-06T13:41:27.018Z,5.20
2023-03-06T13:43:58.527Z,5.30
2023-03-06T13:46:37.873Z,5.50
2023-03-06T13:49:07.611Z,5.60
2023-03-06T13:51:53.473Z,5.70
2023-03-06T13:54:38.674Z,5.70
2023-03-06T13:57:10.525Z,5.80
2023-03-06T13:59:57.010Z,5.90
2023-03-06T14:02:48.407Z,5.90
2023-03-06T14:05:19.444Z,5.70
2023-03-06T14:07:48.387Z,5.50
2023-03-06T14:10:24.461Z,5.50
2023-03-06T14:12:51.086Z,5.40
2023-03-06T14:15:28.211Z,5.30
2023-03-06T14:17:57.935Z,5.30
2023-03-06T14:20:33.161Z,5.30
2023-03-06T14:23:23.248Z,5.30
2023-03-06T14:26:21.836Z,5.20
2023-03-06T14:29:22.021Z,5.30
2023-03-06T14:31:57.365Z,5.50
2023-03-06T14:34:29.681Z,5.50
2023-03-06T14:37:02.062Z,5.60
2023-03-06T14:39:37.425Z,5.70
2023-03-06T14:42:18.600Z,5.60
2023-03-06T14:44:49.988Z,5.80
2023-03-06T14:47:33.911Z,5.70
2023-03-06T14:50:21.416Z,5.80
2023-03-06T14:52:50.354Z,5.80
2023-03-06T14:55:27.798Z,5.80
2023-03-06T14:58:02.249Z,5.80
2023-03-06T15:00:38.753Z,5.80
2023-03-06T15:03:16.310Z,5.60
2023-03-06T15:05:45.289Z,5.60
2023-03-06T15:08:19.562Z,5.60
2023-03-06T15:11:02.059Z,5.70
2023-03-06T15:13:32.966Z,5.70
2023-03-06T15:16:24.135Z,5.60
2023-03-06T15:19:16.992Z,5.80
2023-03-06T15:21:52.721Z,6.00
2023-03-06T15:24:31.787Z,6.10
2023-03-06T15:27:03.488Z,6.00
2023-03-06T15:29:30.531Z,6.00
2023-03-06T15:32:13.747Z,6.00
2023-03-06T15:34:42.818Z,6.00
2023-03-06T15:37:33.818Z,6.00
2023-03-06T15:40:18.053Z,5.90
2023-03-06T15:42:47.297Z,5.90
2023-03-06T15:45:21.792Z,5.80
2023-03-06T15:47:50.645Z,5.70
2023-03-06T15:50:22.653Z,5.70
2023-03-06T15:52:49.929Z,5.70
2023-03-06T15:55:22.137Z,5.70
2023-03-06T15:58:02.011Z,5.60
2023-03-06T16:00:34.374Z,5.60
2023-03-06T16:03:02.902Z,5.60
2023-03-06T16:05:32.257Z,5.60
2023-03-06T16:07:58.947Z,5.60
2023-03-06T16:10:28.550Z,5.60
2023-03-06T16:13:06.165Z,5.50
2023-03-06T16:15:39.561Z,5.60
2023-03-06T16:18:10.299Z,5.50
2023-03-06T16:20:40.153Z,5.50
2023-03-06T16:23:10.273Z,5.50
2023-03-06T16:25:41.042Z,5.60
2023-03-06T16:28:17.782Z,5.60
2023-03-06T16:30:47.181Z,5.50
2023-03-06T16:33:14.435Z,5.40
2023-03-06T16:35:46.444Z,5.50
2023-03-06T16:38:13.431Z,5.50
2023-03-06T16:40:42.628Z,5.50
2023-03-06T16:43:10.832Z,5.40
2023-03-06T16:45:42.323Z,5.40
2023-03-06T16:48:18.709Z,5.40
2023-03-06T16:50:45.841Z,5.40
2023-03-06T16:53:15.275Z,5.40
2023-03-06T16:55:45.564Z,5.30
2023-03-06T16:58:12.316Z,5.30
2023-03-06T17:00:39.005Z,5.30
2023-03-06T17:03:06.194Z,5.30
2023-03-06T17:05:36.606Z,5.30
2023-03-06T17:08:06.457Z,5.30
2023-03-06T17:10:35.354Z,5.20
2023-03-06T17:13:05.174Z,5.20
2023-03-06T17:15:31.926Z,5.20
2023-03-06T17:17:58.742Z,5.20
2023-03-06T17:20:25.377Z,5.10
2023-03-06T17:22:52.179Z,5.10
2023-03-06T17:25:22.656Z,5.00
2023-03-06T17:27:51.651Z,5.00
2023-03-06T17:30:20.552Z,4.90
2023-03-06T17:32:47.235Z,4.90
2023-03-06T17:35:13.912Z,4.80
2023-03-06T17:37:43.159Z,4.80
2023-03-06T17:40:10.600Z,4.70
2023-03-06T17:42:39.447Z,4.70
2023-03-06T17:45:09.129Z,4.80
2023-03-06T17:47:38.373Z,4.70
2023-03-06T17:50:05.491Z,4.70
2023-03-06T17:52:32.225Z,4.80
2023-03-06T17:55:01.421Z,4.80
2023-03-06T17:57:30.205Z,4.70
2023-03-06T17:59:59.417Z,4.70
2023-03-06T18:02:26.188Z,4.70
2023-03-06T18:04:55.040Z,4.70
2023-03-06T18:07:22.093Z,4.70
2023-03-06T18:09:53.808Z,4.70
2023-03-06T18:12:25.292Z,4.70
2023-03-06T18:14:51.946Z,4.70
2023-03-06T18:17:18.762Z,4.70
2023-03-06T18:19:45.438Z,4.70
2023-03-06T18:22:14.188Z,4.70
2023-03-06T18:24:41.141Z,4.80
2023-03-06T18:27:10.290Z,4.70
2023-03-06T18:29:39.417Z,4.80
2023-03-06T18:32:10.527Z,4.80
2023-03-06T18:34:37.481Z,4.80
2023-03-06T18:37:04.147Z,4.80
2023-03-06T18:39:34.964Z,4.80
2023-03-06T18:42:01.775Z,4.80
2023-03-06T18:44:28.470Z,4.80
2023-03-06T18:46:57.478Z,4.80
2023-03-06T18:49:24.233Z,4.80
2023-03-06T18:51:51.027Z,4.80
2023-03-06T18:54:17.719Z,4.80
2023-03-06T18:56:44.618Z,4.80
2023-03-06T18:59:18.981Z,4.80
2023-03-06T19:01:49.172Z,4.80
2023-03-06T19:04:15.994Z,4.80
2023-03-06T19:06:45.113Z,4.90
2023-03-06T19:09:16.453Z,4.80
2023-03-06T19:11:48.540Z,4.80
2023-03-06T19:14:15.881Z,4.90
2023-03-06T19:16:45.014Z,4.90
2023-03-06T19:19:13.902Z,5.00
2023-03-06T19:21:42.841Z,5.00
2023-03-06T19:24:13.858Z,5.00
2023-03-06T19:26:46.170Z,5.00
2023-03-06T19:29:15.222Z,5.00
2023-03-06T19:31:46.683Z,5.00
2023-03-06T19:34:13.486Z,5.00
2023-03-06T19:36:40.815Z,5.10
2023-03-06T19:39:13.122Z,5.10
2023-03-06T19:41:39.822Z,5.00
2023-03-06T19:44:09.483Z,5.10
2023-03-06T19:46:36.280Z,5.10
2023-03-06T19:49:09.891Z,5.00
2023-03-06T19:51:39.011Z,5.00
2023-03-06T19:54:07.950Z,5.10
2023-03-06T19:56:36.849Z,5.10
2023-03-06T19:59:06.149Z,5.10
2023-03-06T20:01:35.024Z,5.10
2023-03-06T20:04:02.013Z,5.20
2023-03-06T20:06:36.610Z,5.10
2023-03-06T20:09:06.763Z,5.10
2023-03-06T20:11:33.661Z,5.10
2023-03-06T20:14:05.011Z,5.10
2023-03-06T20:16:35.322Z,5.10
2023-03-06T20:19:02.904Z,5.10
2023-03-06T20:21:37.393Z,5.10
2023-03-06T20:24:07.917Z,5.10
2023-03-06T20:26:39.241Z,5.10
2023-03-06T20:29:05.927Z,5.10
2023-03-06T20:31:37.496Z,5.10
2023-03-06T20:34:04.924Z,5.10
2023-03-06T20:36:35.478Z,5.10
2023-03-06T20:39:07.520Z,5.00
2023-03-06T20:41:41.338Z,5.00
2023-03-06T20:44:14.368Z,5.00
2023-03-06T20:46:41.313Z,5.00
2023-03-06T20:49:08.595Z,5.00
2023-03-06T20:51:41.496Z,4.90
2023-03-06T20:54:11.011Z,4.90
2023-03-06T20:56:39.535Z,5.00
2023-03-06T20:59:07.121Z,4.90
2023-03-06T21:01:42.016Z,4.90
2023-03-06T21:04:16.075Z,4.90
2023-03-06T21:06:46.299Z,5.00
2023-03-06T21:09:15.779Z,5.00
2023-03-06T21:11:42.933Z,5.00
2023-03-06T21:14:14.186Z,5.00
2023-03-06T21:16:41.533Z,5.10
2023-03-06T21:19:11.123Z,5.10
2023-03-06T21:21:40.178Z,5.20
2023-03-06T21:24:07.264Z,5.10
2023-03-06T21:26:34.036Z,5.10
2023-03-06T21:29:03.960Z,5.00
2023-03-06T21:31:31.854Z,5.00
2023-03-06T21:34:04.505Z,5.10
2023-03-06T21:36:31.603Z,5.10
2023-03-06T21:39:00.622Z,5.10
2023-03-06T21:41:30.267Z,5.00
2023-03-06T21:44:03.340Z,5.00
2023-03-06T21:46:30.550Z,5.00
2023-03-06T21:49:00.157Z,5.10
2023-03-06T21:51:29.086Z,5.00
2023-03-06T21:53:59.012Z,5.10
2023-03-06T21:56:28.216Z,5.00
2023-03-06T21:58:55.980Z,5.00
2023-03-06T22:01:27.439Z,5.10
2023-03-06T22:03:54.517Z,5.10
2023-03-06T22:06:26.145Z,5.10
2023-03-06T22:08:55.144Z,5.10
2023-03-06T22:11:23.546Z,5.10
2023-03-06T22:13:53.626Z,5.10
2023-03-06T22:16:22.678Z,5.10
2023-03-06T22:18:52.279Z,5.20
2023-03-06T22:21:21.354Z,5.10
2023-03-06T22:23:57.433Z,5.20
2023-03-06T22:26:25.174Z,5.20
2023-03-06T22:28:52.117Z,5.20
2023-03-06T22:31:23.680Z,5.30
2023-03-06T22:33:54.346Z,5.30
2023-03-06T22:36:23.719Z,5.20
2023-03-06T22:38:56.759Z,5.30
2023-03-06T22:41:26.675Z,5.30
2023-03-06T22:43:58.044Z,5.30
2023-03-06T22:46:27.335Z,5.30
2023-03-06T22:48:59.281Z,5.30
2023-03-06T22:51:29.811Z,5.30
2023-03-06T22:53:56.682Z,5.30
2023-03-06T22:56:26.042Z,5.30
2023-03-06T22:58:57.635Z,5.20
2023-03-06T23:01:30.816Z,5.20
2023-03-06T23:04:00.243Z,5.10
2023-03-06T23:06:26.848Z,5.10
2023-03-06T23:09:09.319Z,5.00
2023-03-06T23:11:40.958Z,5.00
2023-03-06T23:14:07.846Z,4.90
2023-03-06T23:16:34.474Z,4.90
2023-03-06T23:19:01.158Z,4.90
2023-03-06T23:21:27.845Z,4.90
2023-03-06T23:23:54.944Z,4.80
2023-03-06T23:26:28.929Z,4.90
2023-03-06T23:28:56.577Z,4.80
2023-03-06T23:31:30.736Z,4.70
2023-03-06T23:34:02.110Z,4.70
2023-03-06T23:36:29.838Z,4.70
2023-03-06T23:38:57.569Z,4.70
2023-03-06T23:41:24.761Z,4.70
2023-03-06T23:43:53.470Z,4.70
2023-03-06T23:46:26.005Z,4.70
2023-03-06T23:48:55.360Z,4.70
2023-03-06T23:51:22.823Z,4.70
2023-03-06T23:53:58.229Z,4.70
2023-03-06T23:56:26.717Z,4.70
2023-03-06T23:58:56.184Z,4.70
